createdAt,value
2022-12-17T00:00:04.049Z,-7.58
2022-12-17T00:01:04.018Z,-7.57
2022-12-17T00:02:03.899Z,-7.48
2022-12-17T00:03:04.015Z,-7.58
2022-12-17T00:04:04.064Z,-7.40
2022-12-17T00:05:03.840Z,-7.40
2022-12-17T00:06:03.842Z,-7.31
2022-12-17T00:07:03.841Z,-7.34
2022-12-17T00:08:03.807Z,-7.31
2022-12-17T00:09:03.875Z,-7.25
2022-12-17T00:10:03.811Z,-7.23
2022-12-17T00:11:03.771Z,-7.22
2022-12-17T00:12:03.763Z,-7.26
2022-12-17T00:13:03.752Z,-7.19
2022-12-17T00:14:03.744Z,-7.22
2022-12-17T00:15:03.738Z,-7.21
2022-12-17T00:16:03.805Z,-7.16
2022-12-17T00:17:03.723Z,-7.26
2022-12-17T00:18:03.699Z,-7.18
2022-12-17T00:19:03.687Z,-7.19
2022-12-17T00:20:03.681Z,-7.15
2022-12-17T00:21:03.687Z,-7.19
2022-12-17T00:22:03.676Z,-7.18
2022-12-17T00:23:03.671Z,-7.19
2022-12-17T00:24:03.736Z,-7.15
2022-12-17T00:25:03.638Z,-7.15
2022-12-17T00:26:03.675Z,-7.19
2022-12-17T00:27:03.612Z,-7.02
2022-12-17T00:28:03.594Z,-7.13
2022-12-17T00:29:03.585Z,-7.16
2022-12-17T00:30:03.600Z,-7.16
2022-12-17T00:31:03.633Z,-7.19
2022-12-17T00:32:03.616Z,-7.12
2022-12-17T00:33:03.550Z,-7.18
2022-12-17T00:34:03.529Z,-7.19
2022-12-17T00:35:03.540Z,-7.16
2022-12-17T00:36:03.653Z,-7.15
2022-12-17T00:37:03.504Z,-7.19
2022-12-17T00:38:03.509Z,-7.16
2022-12-17T00:39:03.512Z,-7.11
2022-12-17T00:40:03.471Z,-7.13
2022-12-17T00:41:03.473Z,-7.16
2022-12-17T00:42:03.447Z,-7.13
2022-12-17T00:43:03.440Z,-7.16
2022-12-17T00:44:03.460Z,-7.15
2022-12-17T00:45:03.453Z,-7.22
2022-12-17T00:46:03.439Z,-7.18
2022-12-17T00:47:03.452Z,-7.16
2022-12-17T00:48:03.404Z,-7.11
2022-12-17T00:49:03.404Z,-7.22
2022-12-17T00:50:03.370Z,-7.13
2022-12-17T00:51:03.361Z,-7.18
2022-12-17T00:52:03.344Z,-7.15
2022-12-17T00:53:03.351Z,-7.12
2022-12-17T00:54:03.323Z,-7.11
2022-12-17T00:55:03.337Z,-7.15
2022-12-17T00:56:03.311Z,-7.13
2022-12-17T00:57:03.291Z,-7.18
2022-12-17T00:58:03.301Z,-7.08
2022-12-17T00:59:03.290Z,-7.15
2022-12-17T01:00:03.261Z,-7.13
2022-12-17T01:01:03.292Z,-7.18
2022-12-17T01:02:03.342Z,-7.16
2022-12-17T01:03:03.250Z,-7.15
2022-12-17T01:04:03.240Z,-7.19
2022-12-17T01:05:03.215Z,-7.12
2022-12-17T01:06:03.197Z,-7.13
2022-12-17T01:07:03.210Z,-7.19
2022-12-17T01:08:03.178Z,-7.23
2022-12-17T01:09:03.164Z,-7.26
2022-12-17T01:10:03.158Z,-7.29
2022-12-17T01:11:03.153Z,-7.34
2022-12-17T01:12:03.164Z,-7.41
2022-12-17T01:13:03.122Z,-7.46
2022-12-17T01:14:03.114Z,-7.51
2022-12-17T01:15:03.101Z,-7.61
2022-12-17T01:16:03.160Z,-7.55
2022-12-17T01:17:03.102Z,-7.61
2022-12-17T01:18:03.103Z,-7.60
2022-12-17T01:19:03.070Z,-7.61
2022-12-17T01:20:03.080Z,-7.72
2022-12-17T01:21:03.040Z,-7.73
2022-12-17T01:22:03.045Z,-7.79
2022-12-17T01:23:03.042Z,-7.75
2022-12-17T01:24:03.013Z,-7.91
2022-12-17T01:25:03.011Z,-7.90
2022-12-17T01:26:02.997Z,-7.91
2022-12-17T01:27:02.991Z,-7.96
2022-12-17T01:28:02.985Z,-7.96
2022-12-17T01:29:02.969Z,-8.06
2022-12-17T01:30:02.951Z,-8.06
2022-12-17T01:31:02.966Z,-8.06
2022-12-17T01:32:03.135Z,-8.11
2022-12-17T01:33:02.915Z,-8.11
2022-12-17T01:34:02.925Z,-8.15
2022-12-17T01:35:02.910Z,-8.12
2022-12-17T01:36:02.924Z,-8.11
2022-12-17T01:37:02.872Z,-8.11
2022-12-17T01:38:02.872Z,-8.09
2022-12-17T01:39:02.877Z,-8.11
2022-12-17T01:40:02.855Z,-8.15
2022-12-17T01:41:02.840Z,-8.15
2022-12-17T01:42:02.849Z,-8.16
2022-12-17T01:43:02.807Z,-8.21
2022-12-17T01:44:02.822Z,-8.24
2022-12-17T01:45:02.791Z,-8.29
2022-12-17T01:46:02.901Z,-8.27
2022-12-17T01:47:02.769Z,-8.29
2022-12-17T01:48:02.763Z,-8.26
2022-12-17T01:49:02.773Z,-8.30
2022-12-17T01:50:02.743Z,-8.31
2022-12-17T01:51:02.748Z,-8.34
2022-12-17T01:52:02.731Z,-8.29
2022-12-17T01:53:02.705Z,-8.24
2022-12-17T01:54:02.724Z,-8.29
2022-12-17T01:55:02.685Z,-8.31
2022-12-17T01:56:02.681Z,-8.31
2022-12-17T01:57:02.662Z,-8.33
2022-12-17T01:58:02.655Z,-8.33
2022-12-17T01:59:02.674Z,-8.26
2022-12-17T02:00:02.631Z,-8.39
2022-12-17T02:01:02.693Z,-8.34
2022-12-17T02:02:02.852Z,-8.37
2022-12-17T02:03:02.783Z,-8.33
2022-12-17T02:04:02.606Z,-8.30
2022-12-17T02:05:02.579Z,-8.36
2022-12-17T02:06:02.587Z,-8.47
2022-12-17T02:07:02.644Z,-8.36
2022-12-17T02:08:02.642Z,-8.44
2022-12-17T02:09:02.541Z,-8.36
2022-12-17T02:10:02.547Z,-8.37
2022-12-17T02:11:02.512Z,-8.40
2022-12-17T02:12:02.502Z,-8.40
2022-12-17T02:13:02.492Z,-8.34
2022-12-17T02:14:02.485Z,-8.27
2022-12-17T02:15:02.504Z,-8.27
2022-12-17T02:16:02.544Z,-8.27
2022-12-17T02:17:02.461Z,-8.29
2022-12-17T02:18:02.454Z,-8.19
2022-12-17T02:19:02.447Z,-8.24
2022-12-17T02:20:02.426Z,-8.08
2022-12-17T02:21:02.425Z,-8.11
2022-12-17T02:22:02.428Z,-8.06
2022-12-17T02:23:02.386Z,-8.12
2022-12-17T02:24:02.392Z,-8.05
2022-12-17T02:25:02.371Z,-8.08
2022-12-17T02:26:02.385Z,-8.05
2022-12-17T02:27:02.357Z,-8.12
2022-12-17T02:28:02.331Z,-8.02
2022-12-17T02:29:02.354Z,-8.06
2022-12-17T02:30:02.313Z,-8.01
2022-12-17T02:31:02.322Z,-8.01
2022-12-17T02:32:02.383Z,-7.99
2022-12-17T02:33:02.300Z,-7.87
2022-12-17T02:34:02.288Z,-7.97
2022-12-17T02:35:02.271Z,-8.05
2022-12-17T02:36:02.247Z,-7.96
2022-12-17T02:37:02.261Z,-8.08
2022-12-17T02:38:02.220Z,-8.01
2022-12-17T02:39:02.280Z,-8.05
2022-12-17T02:40:02.221Z,-7.93
2022-12-17T02:41:02.235Z,-7.96
2022-12-17T02:42:02.236Z,-8.01
2022-12-17T02:43:02.214Z,-7.91
2022-12-17T02:44:02.161Z,-7.96
2022-12-17T02:45:02.189Z,-8.05
2022-12-17T02:46:02.229Z,-7.97
2022-12-17T02:47:02.157Z,-8.02
2022-12-17T02:48:02.128Z,-8.02
2022-12-17T02:49:02.104Z,-8.01
2022-12-17T02:50:02.097Z,-8.05
2022-12-17T02:51:02.098Z,-7.96
2022-12-17T02:52:02.176Z,-7.97
2022-12-17T02:53:02.068Z,-7.97
2022-12-17T02:54:02.079Z,-7.97
2022-12-17T02:55:02.131Z,-7.94
2022-12-17T02:56:02.089Z,-7.94
2022-12-17T02:57:02.065Z,-7.97
2022-12-17T02:58:02.019Z,-7.97
2022-12-17T02:59:02.030Z,-8.02
2022-12-17T03:00:02.751Z,-7.94
2022-12-17T03:01:02.064Z,-7.94
2022-12-17T03:02:02.215Z,-7.87
2022-12-17T03:03:02.069Z,-8.02
2022-12-17T03:04:01.976Z,-8.01
2022-12-17T03:05:15.228Z,-7.94
2022-12-17T03:06:02.931Z,-7.97
2022-12-17T03:07:01.912Z,-8.01
2022-12-17T03:08:02.012Z,-7.91
2022-12-17T03:09:01.908Z,-7.91
2022-12-17T03:10:01.888Z,-7.96
2022-12-17T03:11:01.880Z,-7.82
2022-12-17T03:12:01.888Z,-7.80
2022-12-17T03:13:01.904Z,-7.89
2022-12-17T03:14:01.921Z,-7.75
2022-12-17T03:15:01.834Z,-7.80
2022-12-17T03:16:01.816Z,-7.83
2022-12-17T03:17:01.913Z,-7.82
2022-12-17T03:18:01.812Z,-7.83
2022-12-17T03:19:01.815Z,-7.80
2022-12-17T03:20:01.782Z,-7.78
2022-12-17T03:21:01.765Z,-7.79
2022-12-17T03:22:01.756Z,-7.72
2022-12-17T03:23:01.823Z,-7.76
2022-12-17T03:24:01.817Z,-7.76
2022-12-17T03:25:01.759Z,-7.75
2022-12-17T03:26:01.723Z,-7.76
2022-12-17T03:27:01.706Z,-7.75
2022-12-17T03:28:01.732Z,-7.71
2022-12-17T03:29:01.694Z,-7.69
2022-12-17T03:30:01.702Z,-7.71
2022-12-17T03:31:01.677Z,-7.66
2022-12-17T03:32:01.664Z,-7.69
2022-12-17T03:33:01.633Z,-7.71
2022-12-17T03:34:01.634Z,-7.66
2022-12-17T03:35:01.620Z,-7.68
2022-12-17T03:36:01.630Z,-7.64
2022-12-17T03:37:01.614Z,-7.71
2022-12-17T03:38:01.607Z,-7.73
2022-12-17T03:39:01.610Z,-7.76
2022-12-17T03:40:01.575Z,-7.75
2022-12-17T03:41:01.578Z,-7.76
2022-12-17T03:42:01.672Z,-7.82
2022-12-17T03:43:01.584Z,-7.82
2022-12-17T03:44:01.528Z,-7.76
2022-12-17T03:45:01.686Z,-7.82
2022-12-17T03:46:01.560Z,-7.80
2022-12-17T03:47:01.495Z,-7.82
2022-12-17T03:48:01.482Z,-7.78
2022-12-17T03:49:01.475Z,-7.82
2022-12-17T03:50:01.515Z,-7.83
2022-12-17T03:51:01.481Z,-7.86
2022-12-17T03:52:01.482Z,-7.87
2022-12-17T03:53:01.433Z,-7.82
2022-12-17T03:54:01.415Z,-7.87
2022-12-17T03:55:01.450Z,-7.99
2022-12-17T03:56:01.397Z,-7.86
2022-12-17T03:57:01.382Z,-7.94
2022-12-17T03:58:01.373Z,-7.94
2022-12-17T03:59:01.382Z,-8.08
2022-12-17T04:00:01.371Z,-7.89
2022-12-17T04:01:01.420Z,-8.05
2022-12-17T04:02:01.437Z,-8.05
2022-12-17T04:03:01.452Z,-8.02
2022-12-17T04:04:01.316Z,-7.97
2022-12-17T04:05:01.318Z,-7.99
2022-12-17T04:06:01.292Z,-8.15
2022-12-17T04:07:01.304Z,-8.16
2022-12-17T04:08:01.269Z,-8.16
2022-12-17T04:09:01.270Z,-8.16
2022-12-17T04:10:01.247Z,-8.19
2022-12-17T04:11:01.232Z,-8.23
2022-12-17T04:12:01.243Z,-8.23
2022-12-17T04:13:01.219Z,-8.33
2022-12-17T04:14:01.297Z,-8.39
2022-12-17T04:15:01.193Z,-8.39
2022-12-17T04:16:01.290Z,-8.26
2022-12-17T04:17:01.193Z,-8.36
2022-12-17T04:18:01.169Z,-8.37
2022-12-17T04:19:01.156Z,-8.42
2022-12-17T04:20:01.140Z,-8.39
2022-12-17T04:21:01.131Z,-8.40
2022-12-17T04:22:01.153Z,-8.40
2022-12-17T04:23:01.106Z,-8.42
2022-12-17T04:24:01.105Z,-8.48
2022-12-17T04:25:01.077Z,-8.51
2022-12-17T04:26:01.080Z,-8.37
2022-12-17T04:27:01.086Z,-8.52
2022-12-17T04:28:01.089Z,-8.51
2022-12-17T04:29:01.048Z,-8.52
2022-12-17T04:30:01.041Z,-8.58
2022-12-17T04:31:01.098Z,-8.66
2022-12-17T04:32:01.062Z,-8.62
2022-12-17T04:33:01.023Z,-8.63
2022-12-17T04:34:01.023Z,-8.69
2022-12-17T04:35:01.001Z,-8.68
2022-12-17T04:36:00.999Z,-8.62
2022-12-17T04:37:00.954Z,-8.72
2022-12-17T04:38:00.954Z,-8.73
2022-12-17T04:39:00.964Z,-8.84
2022-12-17T04:40:00.939Z,-8.89
2022-12-17T04:41:00.966Z,-8.90
2022-12-17T04:42:00.936Z,-8.94
2022-12-17T04:43:00.952Z,-8.94
2022-12-17T04:44:03.245Z,-8.94
2022-12-17T04:45:00.870Z,-9.01
2022-12-17T04:46:00.927Z,-8.96
2022-12-17T04:47:00.851Z,-8.98
2022-12-17T04:48:00.866Z,-9.00
2022-12-17T04:49:00.863Z,-8.96
2022-12-17T04:50:00.814Z,-9.04
2022-12-17T04:51:00.808Z,-8.89
2022-12-17T04:52:00.795Z,-9.01
2022-12-17T04:53:00.809Z,-9.12
2022-12-17T04:54:00.792Z,-9.01
2022-12-17T04:55:00.769Z,-9.11
2022-12-17T04:56:00.770Z,-9.14
2022-12-17T04:57:00.746Z,-9.08
2022-12-17T04:58:00.781Z,-9.07
2022-12-17T04:59:00.745Z,-9.08
2022-12-17T05:00:00.722Z,-9.00
2022-12-17T05:01:00.700Z,-9.01
2022-12-17T05:02:00.867Z,-9.02
2022-12-17T05:03:00.966Z,-8.96
2022-12-17T05:04:00.794Z,-8.96
2022-12-17T05:05:00.672Z,-8.93
2022-12-17T05:06:00.669Z,-8.94
2022-12-17T05:07:00.643Z,-9.05
2022-12-17T05:08:00.633Z,-9.00
2022-12-17T05:09:00.645Z,-9.01
2022-12-17T05:10:00.603Z,-8.94
2022-12-17T05:11:00.600Z,-9.00
2022-12-17T05:12:00.581Z,-9.04
2022-12-17T05:13:00.575Z,-8.96
2022-12-17T05:14:00.613Z,-9.10
2022-12-17T05:15:00.573Z,-9.00
2022-12-17T05:16:00.583Z,-9.08
2022-12-17T05:17:00.539Z,-8.96
2022-12-17T05:18:00.562Z,-9.00
2022-12-17T05:19:00.511Z,-9.08
2022-12-17T05:20:00.546Z,-8.94
2022-12-17T05:21:00.492Z,-9.02
2022-12-17T05:22:00.498Z,-8.96
2022-12-17T05:23:00.478Z,-8.91
2022-12-17T05:24:00.455Z,-9.00
2022-12-17T05:25:00.461Z,-8.98
2022-12-17T05:26:00.436Z,-8.98
2022-12-17T05:27:00.429Z,-8.93
2022-12-17T05:28:00.439Z,-9.02
2022-12-17T05:29:00.414Z,-8.98
2022-12-17T05:30:00.409Z,-8.96
2022-12-17T05:31:00.478Z,-9.02
2022-12-17T05:32:00.395Z,-9.11
2022-12-17T05:33:00.366Z,-9.15
2022-12-17T05:34:00.355Z,-9.05
2022-12-17T05:35:00.375Z,-9.14
2022-12-17T05:36:00.354Z,-9.08
2022-12-17T05:37:00.318Z,-9.12
2022-12-17T05:38:00.341Z,-9.19
2022-12-17T05:39:00.306Z,-9.19
2022-12-17T05:40:00.292Z,-9.22
2022-12-17T05:41:00.289Z,-9.23
2022-12-17T05:42:00.262Z,-9.23
2022-12-17T05:43:00.272Z,-9.23
2022-12-17T05:44:00.279Z,-9.25
2022-12-17T05:45:00.261Z,-9.28
2022-12-17T05:46:00.222Z,-9.36
2022-12-17T05:47:00.320Z,-9.36
2022-12-17T05:48:00.252Z,-9.32
2022-12-17T05:49:00.237Z,-9.41
2022-12-17T05:50:00.209Z,-9.39
2022-12-17T05:51:00.170Z,-9.41
2022-12-17T05:52:00.231Z,-9.40
2022-12-17T05:53:00.186Z,-9.41
2022-12-17T05:54:00.174Z,-9.50
2022-12-17T05:55:00.148Z,-9.45
2022-12-17T05:56:00.129Z,-9.45
2022-12-17T05:57:00.108Z,-9.47
2022-12-17T05:58:00.129Z,-9.48
2022-12-17T05:59:00.104Z,-9.50
2022-12-17T06:00:00.090Z,-9.44
2022-12-17T06:01:00.112Z,-9.47
2022-12-17T06:02:00.232Z,-9.44
2022-12-17T06:03:00.201Z,-9.47
2022-12-17T06:04:00.109Z,-9.41
2022-12-17T06:05:02.337Z,-9.50
2022-12-17T06:06:00.014Z,-9.44
2022-12-17T06:07:00.000Z,-9.41
2022-12-17T06:08:00.021Z,-9.56
2022-12-17T06:09:00.011Z,-9.48
2022-12-17T06:09:59.976Z,-9.50
2022-12-17T06:10:59.972Z,-9.52
2022-12-17T06:12:02.736Z,-9.58
2022-12-17T06:12:59.937Z,-9.56
2022-12-17T06:13:59.956Z,-9.54
2022-12-17T06:14:59.918Z,-9.48
2022-12-17T06:15:59.987Z,-9.56
2022-12-17T06:16:59.896Z,-9.54
2022-12-17T06:17:59.893Z,-9.56
2022-12-17T06:18:59.898Z,-9.54
2022-12-17T06:19:59.867Z,-9.63
2022-12-17T06:20:59.880Z,-9.58
2022-12-17T06:21:59.860Z,-9.62
2022-12-17T06:22:59.860Z,-9.62
2022-12-17T06:23:59.839Z,-9.58
2022-12-17T06:24:59.850Z,-9.61
2022-12-17T06:25:59.845Z,-9.65
2022-12-17T06:26:59.796Z,-9.63
2022-12-17T06:27:59.795Z,-9.58
2022-12-17T06:28:59.802Z,-9.66
2022-12-17T06:29:59.765Z,-9.74
2022-12-17T06:30:59.801Z,-9.71
2022-12-17T06:31:59.760Z,-9.63
2022-12-17T06:32:59.730Z,-9.74
2022-12-17T06:33:59.730Z,-9.72
2022-12-17T06:34:59.736Z,-9.79
2022-12-17T06:35:59.698Z,-9.77
2022-12-17T06:36:59.688Z,-9.72
2022-12-17T06:37:59.697Z,-9.71
2022-12-17T06:38:59.690Z,-9.79
2022-12-17T06:39:59.722Z,-9.76
2022-12-17T06:40:59.644Z,-9.72
2022-12-17T06:42:04.363Z,-9.74
2022-12-17T06:43:00.623Z,-9.77
2022-12-17T06:43:59.635Z,-9.68
2022-12-17T06:44:59.602Z,-9.72
2022-12-17T06:45:59.603Z,-9.76
2022-12-17T06:46:59.658Z,-9.77
2022-12-17T06:47:59.592Z,-9.76
2022-12-17T06:48:59.560Z,-9.68
2022-12-17T06:50:01.493Z,-9.69
2022-12-17T06:50:59.539Z,-9.71
2022-12-17T06:51:59.538Z,-9.76
2022-12-17T06:52:59.516Z,-9.74
2022-12-17T06:53:59.531Z,-9.68
2022-12-17T06:54:59.497Z,-9.86
2022-12-17T06:55:59.505Z,-9.84
2022-12-17T06:56:59.484Z,-9.74
2022-12-17T06:57:59.490Z,-9.81
2022-12-17T06:58:59.485Z,-9.81
2022-12-17T06:59:59.444Z,-9.79
2022-12-17T07:00:59.506Z,-9.84
2022-12-17T07:01:59.564Z,-9.84
2022-12-17T07:02:59.480Z,-9.89
2022-12-17T07:03:59.413Z,-9.95
2022-12-17T07:04:59.394Z,-9.90
2022-12-17T07:05:59.439Z,-10.02
2022-12-17T07:06:59.386Z,-10.02
2022-12-17T07:07:59.375Z,-9.92
2022-12-17T07:08:59.351Z,-9.94
2022-12-17T07:09:59.345Z,-9.89
2022-12-17T07:10:59.333Z,-10.01
2022-12-17T07:11:59.423Z,-10.04
2022-12-17T07:12:59.318Z,-10.00
2022-12-17T07:13:59.300Z,-10.08
2022-12-17T07:14:59.312Z,-10.05
2022-12-17T07:15:59.324Z,-10.04
2022-12-17T07:16:59.302Z,-10.08
2022-12-17T07:17:59.271Z,-10.08
2022-12-17T07:18:59.253Z,-10.07
2022-12-17T07:19:59.241Z,-10.05
2022-12-17T07:20:59.238Z,-10.07
2022-12-17T07:21:59.255Z,-10.07
2022-12-17T07:22:59.434Z,-10.07
2022-12-17T07:23:59.196Z,-9.95
2022-12-17T07:24:59.201Z,-9.97
2022-12-17T07:25:59.184Z,-9.89
2022-12-17T07:26:59.236Z,-9.98
2022-12-17T07:27:59.174Z,-9.94
2022-12-17T07:28:59.138Z,-9.90
2022-12-17T07:29:59.135Z,-9.87
2022-12-17T07:30:59.154Z,-9.89
2022-12-17T07:31:59.205Z,-9.97
2022-12-17T07:32:59.115Z,-9.87
2022-12-17T07:33:59.120Z,-9.86
2022-12-17T07:34:59.111Z,-9.90
2022-12-17T07:35:59.063Z,-9.84
2022-12-17T07:36:59.071Z,-9.81
2022-12-17T07:37:59.056Z,-9.81
2022-12-17T07:38:59.659Z,-9.86
2022-12-17T07:39:59.056Z,-9.81
2022-12-17T07:40:59.027Z,-9.84
2022-12-17T07:41:59.008Z,-9.83
2022-12-17T07:42:59.015Z,-9.81
2022-12-17T07:43:59.007Z,-9.74
2022-12-17T07:44:58.994Z,-9.69
2022-12-17T07:45:59.048Z,-9.62
2022-12-17T07:46:58.971Z,-9.54
2022-12-17T07:47:58.973Z,-9.48
2022-12-17T07:48:58.946Z,-9.48
2022-12-17T07:49:58.930Z,-9.44
2022-12-17T07:50:58.981Z,-9.44
2022-12-17T07:51:58.952Z,-9.39
2022-12-17T07:52:58.889Z,-9.39
2022-12-17T07:53:58.884Z,-9.36
2022-12-17T07:54:58.869Z,-9.37
2022-12-17T07:55:58.870Z,-9.36
2022-12-17T07:56:58.876Z,-9.36
2022-12-17T07:57:58.866Z,-9.36
2022-12-17T07:58:58.825Z,-9.39
2022-12-17T07:59:58.832Z,-9.40
2022-12-17T08:00:58.848Z,-9.32
2022-12-17T08:01:59.023Z,-9.39
2022-12-17T08:02:58.973Z,-9.39
2022-12-17T08:03:58.776Z,-9.33
2022-12-17T08:04:58.762Z,-9.39
2022-12-17T08:05:58.753Z,-9.33
2022-12-17T08:07:04.140Z,-9.29
2022-12-17T08:07:59.761Z,-9.41
2022-12-17T08:08:58.732Z,-9.36
2022-12-17T08:09:58.734Z,-9.26
2022-12-17T08:10:58.698Z,-9.37
2022-12-17T08:11:58.693Z,-9.28
2022-12-17T08:12:58.681Z,-9.37
2022-12-17T08:13:58.705Z,-9.33
2022-12-17T08:14:58.689Z,-9.29
2022-12-17T08:15:58.668Z,-9.25
2022-12-17T08:16:58.733Z,-9.25
2022-12-17T08:17:58.634Z,-9.26
2022-12-17T08:18:58.621Z,-9.22
2022-12-17T08:19:58.608Z,-9.15
2022-12-17T08:20:58.602Z,-9.14
2022-12-17T08:21:58.608Z,-9.14
2022-12-17T08:22:58.573Z,-9.15
2022-12-17T08:23:58.562Z,-9.18
2022-12-17T08:24:58.554Z,-9.11
2022-12-17T08:25:58.567Z,-9.04
2022-12-17T08:26:58.559Z,-9.14
2022-12-17T08:27:58.552Z,-9.10
2022-12-17T08:28:58.510Z,-9.04
2022-12-17T08:29:58.537Z,-9.11
2022-12-17T08:30:58.566Z,-9.04
2022-12-17T08:31:58.500Z,-8.98
2022-12-17T08:32:58.477Z,-8.94
2022-12-17T08:34:01.253Z,-9.02
2022-12-17T08:34:59.471Z,-8.96
2022-12-17T08:35:58.453Z,-8.94
2022-12-17T08:36:58.425Z,-8.86
2022-12-17T08:37:58.424Z,-8.87
2022-12-17T08:38:58.455Z,-8.83
2022-12-17T08:39:58.395Z,-8.81
2022-12-17T08:40:58.385Z,-8.68
2022-12-17T08:42:03.958Z,-8.66
2022-12-17T08:42:58.363Z,-8.65
2022-12-17T08:43:58.364Z,-8.55
2022-12-17T08:44:58.337Z,-8.50
2022-12-17T08:45:58.405Z,-8.45
2022-12-17T08:46:58.341Z,-8.42
2022-12-17T08:48:03.681Z,-8.37
2022-12-17T08:48:59.335Z,-8.34
2022-12-17T08:49:58.307Z,-8.40
2022-12-17T08:50:58.278Z,-8.31
2022-12-17T08:51:58.283Z,-8.40
2022-12-17T08:52:58.261Z,-8.33
2022-12-17T08:53:58.259Z,-8.36
2022-12-17T08:54:58.260Z,-8.31
2022-12-17T08:55:58.238Z,-8.26
2022-12-17T08:56:58.288Z,-8.19
2022-12-17T08:57:58.209Z,-8.15
2022-12-17T08:58:59.384Z,-8.12
2022-12-17T08:59:58.210Z,-8.01
2022-12-17T09:00:58.238Z,-8.06
2022-12-17T09:01:58.257Z,-8.05
2022-12-17T09:02:58.347Z,-7.96
2022-12-17T09:03:58.156Z,-7.89
2022-12-17T09:04:58.131Z,-7.99
2022-12-17T09:05:58.126Z,-7.90
2022-12-17T09:06:58.107Z,-7.96
2022-12-17T09:07:58.124Z,-7.83
2022-12-17T09:08:58.087Z,-7.76
2022-12-17T09:09:58.078Z,-7.75
2022-12-17T09:10:58.067Z,-7.66
2022-12-17T09:11:58.056Z,-7.60
2022-12-17T09:13:04.217Z,-7.62
2022-12-17T09:13:59.031Z,-7.48
2022-12-17T09:14:58.017Z,-7.43
2022-12-17T09:15:58.012Z,-7.43
2022-12-17T09:16:58.106Z,-7.33
2022-12-17T09:17:58.016Z,-7.33
2022-12-17T09:18:57.988Z,-7.31
2022-12-17T09:19:57.993Z,-7.23
2022-12-17T09:20:57.963Z,-7.15
2022-12-17T09:21:57.972Z,-7.15
2022-12-17T09:22:57.973Z,-7.18
2022-12-17T09:23:57.971Z,-7.18
2022-12-17T09:24:57.932Z,-7.07
2022-12-17T09:25:58.242Z,-7.07
2022-12-17T09:26:57.900Z,-6.94
2022-12-17T09:27:57.886Z,-6.89
2022-12-17T09:28:57.917Z,-6.95
2022-12-17T09:29:57.867Z,-6.89
2022-12-17T09:30:58.003Z,-6.83
2022-12-17T09:31:57.862Z,-6.87
2022-12-17T09:32:57.830Z,-6.82
2022-12-17T09:33:57.845Z,-6.84
2022-12-17T09:34:57.821Z,-6.65
2022-12-17T09:35:57.825Z,-6.66
2022-12-17T09:36:57.801Z,-6.71
2022-12-17T09:37:57.780Z,-6.65
2022-12-17T09:38:57.803Z,-6.55
2022-12-17T09:39:57.780Z,-6.61
2022-12-17T09:40:57.754Z,-6.59
2022-12-17T09:41:57.761Z,-6.44
2022-12-17T09:43:00.032Z,-6.44
2022-12-17T09:43:57.718Z,-6.49
2022-12-17T09:44:57.709Z,-6.40
2022-12-17T09:45:57.821Z,-6.37
2022-12-17T09:46:57.682Z,-6.40
2022-12-17T09:47:57.682Z,-6.31
2022-12-17T09:48:57.668Z,-6.29
2022-12-17T09:49:57.649Z,-6.22
2022-12-17T09:50:57.644Z,-6.22
2022-12-17T09:51:57.672Z,-6.19
2022-12-17T09:52:57.630Z,-6.16
2022-12-17T09:53:57.613Z,-6.18
2022-12-17T09:55:01.197Z,-6.05
2022-12-17T09:55:57.622Z,-6.10
2022-12-17T09:56:57.579Z,-6.11
2022-12-17T09:57:57.572Z,-6.08
2022-12-17T09:58:57.561Z,-6.07
2022-12-17T09:59:57.576Z,-6.15
2022-12-17T10:01:00.867Z,-6.16
2022-12-17T10:01:57.689Z,-6.08
2022-12-17T10:02:57.721Z,-6.00
2022-12-17T10:03:57.607Z,-6.04
2022-12-17T10:04:57.494Z,-5.94
2022-12-17T10:05:57.506Z,-5.86
2022-12-17T10:06:57.468Z,-5.82
2022-12-17T10:07:57.555Z,-5.76
2022-12-17T10:08:57.465Z,-5.59
2022-12-17T10:09:57.440Z,-5.62
2022-12-17T10:10:57.425Z,-5.62
2022-12-17T10:11:57.437Z,-5.55
2022-12-17T10:12:57.403Z,-5.50
2022-12-17T10:13:57.397Z,-5.46
2022-12-17T10:14:57.380Z,-5.46
2022-12-17T10:15:57.507Z,-5.33
2022-12-17T10:16:57.383Z,-5.33
2022-12-17T10:17:57.368Z,-5.30
2022-12-17T10:18:57.342Z,-5.35
2022-12-17T10:19:57.368Z,-5.19
2022-12-17T10:20:57.319Z,-5.04
2022-12-17T10:21:57.318Z,-5.08
2022-12-17T10:22:57.300Z,-5.06
2022-12-17T10:23:57.311Z,-5.00
2022-12-17T10:24:57.275Z,-4.95
2022-12-17T10:25:57.323Z,-4.89
2022-12-17T10:26:57.254Z,-4.93
2022-12-17T10:27:57.265Z,-4.96
2022-12-17T10:28:57.258Z,-4.96
2022-12-17T10:29:57.224Z,-4.93
2022-12-17T10:30:57.279Z,-4.87
2022-12-17T10:31:57.198Z,-4.99
2022-12-17T10:32:57.196Z,-4.95
2022-12-17T10:33:57.184Z,-4.86
2022-12-17T10:35:03.363Z,-4.79
2022-12-17T10:35:58.175Z,-4.89
2022-12-17T10:36:57.147Z,-4.79
2022-12-17T10:37:57.134Z,-4.69
2022-12-17T10:38:57.136Z,-4.61
2022-12-17T10:39:57.157Z,-4.53
2022-12-17T10:40:57.096Z,-4.39
2022-12-17T10:41:57.116Z,-4.36
2022-12-17T10:42:57.098Z,-4.40
2022-12-17T10:43:57.067Z,-4.38
2022-12-17T10:44:57.074Z,-4.29
2022-12-17T10:45:57.141Z,-4.17
2022-12-17T10:46:57.044Z,-4.11
2022-12-17T10:47:57.051Z,-4.07
2022-12-17T10:48:57.018Z,-4.07
2022-12-17T10:49:57.029Z,-4.07
2022-12-17T10:50:57.004Z,-4.03
2022-12-17T10:51:57.007Z,-4.10
2022-12-17T10:52:56.984Z,-4.10
2022-12-17T10:53:56.966Z,-4.03
2022-12-17T10:54:56.970Z,-4.03
2022-12-17T10:55:56.969Z,-3.91
2022-12-17T10:56:56.928Z,-3.88
2022-12-17T10:57:56.958Z,-3.86
2022-12-17T10:58:56.950Z,-3.91
2022-12-17T10:59:56.897Z,-3.82
2022-12-17T11:00:56.886Z,-3.83
2022-12-17T11:01:56.956Z,-3.83
2022-12-17T11:02:57.037Z,-3.76
2022-12-17T11:03:56.951Z,-3.62
2022-12-17T11:04:56.909Z,-3.56
2022-12-17T11:05:59.826Z,-3.43
2022-12-17T11:06:56.815Z,-3.46
2022-12-17T11:07:56.816Z,-3.39
2022-12-17T11:08:56.828Z,-3.36
2022-12-17T11:09:56.789Z,-3.36
2022-12-17T11:10:56.776Z,-3.46
2022-12-17T11:11:56.784Z,-3.38
2022-12-17T11:12:56.758Z,-3.35
2022-12-17T11:13:56.764Z,-3.30
2022-12-17T11:14:56.733Z,-3.28
2022-12-17T11:15:56.814Z,-3.18
2022-12-17T11:16:56.714Z,-3.12
2022-12-17T11:17:56.719Z,-3.02
2022-12-17T11:18:56.690Z,-2.92
2022-12-17T11:19:56.692Z,-2.86
2022-12-17T11:20:56.679Z,-2.97
2022-12-17T11:21:56.670Z,-2.96
2022-12-17T11:22:56.683Z,-2.86
2022-12-17T11:23:56.641Z,-2.88
2022-12-17T11:24:56.627Z,-2.88
2022-12-17T11:25:56.627Z,-2.89
2022-12-17T11:26:56.627Z,-2.85
2022-12-17T11:27:56.610Z,-2.99
2022-12-17T11:28:56.613Z,-3.00
2022-12-17T11:29:56.570Z,-3.00
2022-12-17T11:30:56.619Z,-2.86
2022-12-17T11:31:56.571Z,-2.86
2022-12-17T11:32:56.560Z,-2.74
2022-12-17T11:33:56.530Z,-2.81
2022-12-17T11:34:56.520Z,-2.64
2022-12-17T11:35:56.537Z,-2.66
2022-12-17T11:36:56.499Z,-2.61
2022-12-17T11:37:56.481Z,-2.56
2022-12-17T11:38:57.017Z,-2.48
2022-12-17T11:39:56.486Z,-2.64
2022-12-17T11:40:56.462Z,-2.77
2022-12-17T11:41:56.442Z,-2.74
2022-12-17T11:42:56.443Z,-2.60
2022-12-17T11:43:56.709Z,-2.61
2022-12-17T11:44:56.450Z,-2.60
2022-12-17T11:45:56.395Z,-2.61
2022-12-17T11:46:56.804Z,-2.52
2022-12-17T11:47:59.448Z,-2.43
2022-12-17T11:48:56.384Z,-2.52
2022-12-17T11:49:56.378Z,-2.60
2022-12-17T11:50:56.344Z,-2.61
2022-12-17T11:51:56.328Z,-2.53
2022-12-17T11:52:56.321Z,-2.58
2022-12-17T11:53:56.324Z,-2.34
2022-12-17T11:54:57.123Z,-2.40
2022-12-17T11:55:56.315Z,-2.48
2022-12-17T11:56:56.295Z,-2.29
2022-12-17T11:57:56.263Z,-2.27
2022-12-17T11:58:56.251Z,-2.23
2022-12-17T12:00:02.240Z,-2.26
2022-12-17T12:00:57.246Z,-2.10
2022-12-17T12:01:56.304Z,-2.06
2022-12-17T12:02:56.357Z,-2.05
2022-12-17T12:03:56.226Z,-1.95
2022-12-17T12:04:56.191Z,-1.97
2022-12-17T12:05:57.013Z,-1.91
2022-12-17T12:06:56.190Z,-1.79
2022-12-17T12:07:56.174Z,-1.88
2022-12-17T12:08:56.158Z,-1.91
2022-12-17T12:09:56.137Z,-1.97
2022-12-17T12:10:56.152Z,-1.97
2022-12-17T12:11:56.137Z,-1.88
2022-12-17T12:12:56.137Z,-1.88
2022-12-17T12:13:56.103Z,-1.91
2022-12-17T12:14:56.080Z,-1.90
2022-12-17T12:15:56.147Z,-1.91
2022-12-17T12:16:56.129Z,-1.85
2022-12-17T12:17:56.077Z,-1.92
2022-12-17T12:18:56.033Z,-1.77
2022-12-17T12:19:56.016Z,-1.85
2022-12-17T12:20:56.014Z,-1.72
2022-12-17T12:21:56.804Z,-1.61
2022-12-17T12:22:55.996Z,-1.66
2022-12-17T12:23:56.230Z,-1.73
2022-12-17T12:24:55.973Z,-1.79
2022-12-17T12:25:55.979Z,-1.72
2022-12-17T12:26:55.973Z,-1.61
2022-12-17T12:27:55.959Z,-1.58
2022-12-17T12:28:55.932Z,-1.46
2022-12-17T12:29:55.918Z,-1.56
2022-12-17T12:30:55.916Z,-1.48
2022-12-17T12:31:55.978Z,-1.49
2022-12-17T12:32:55.914Z,-1.49
2022-12-17T12:33:55.872Z,-1.52
2022-12-17T12:34:55.864Z,-1.48
2022-12-17T12:35:55.853Z,-1.49
2022-12-17T12:36:55.863Z,-1.48
2022-12-17T12:37:55.830Z,-1.49
2022-12-17T12:38:55.823Z,-1.56
2022-12-17T12:39:55.807Z,-1.45
2022-12-17T12:40:55.809Z,-1.41
2022-12-17T12:41:55.808Z,-1.48
2022-12-17T12:42:55.778Z,-1.35
2022-12-17T12:43:55.766Z,-1.40
2022-12-17T12:44:55.752Z,-1.34
2022-12-17T12:45:55.857Z,-1.40
2022-12-17T12:46:55.738Z,-1.37
2022-12-17T12:47:55.741Z,-1.30
2022-12-17T12:48:55.722Z,-1.31
2022-12-17T12:49:55.700Z,-1.46
2022-12-17T12:50:55.712Z,-1.37
2022-12-17T12:51:55.682Z,-1.34